地図

経路データ

SID SEASON NUMBER BASIN SUBBASIN NAME ISO_TIME NATURE LAT LON WMO_WIND WMO_PRES WMO_AGENCY TRACK_TYPE DIST2LAND LANDFALL IFLAG USA_AGENCY USA_ATCF_ID USA_LAT USA_LON USA_RECORD USA_STATUS USA_WIND USA_PRES USA_SSHS USA_R34_NE USA_R34_SE USA_R34_SW USA_R34_NW USA_R50_NE USA_R50_SE USA_R50_SW USA_R50_NW USA_R64_NE USA_R64_SE USA_R64_SW USA_R64_NW USA_POCI USA_ROCI USA_RMW USA_EYE TOKYO_LAT TOKYO_LON TOKYO_GRADE TOKYO_WIND TOKYO_PRES TOKYO_R50_DIR TOKYO_R50_LONG TOKYO_R50_SHORT TOKYO_R30_DIR TOKYO_R30_LONG TOKYO_R30_SHORT TOKYO_LAND CMA_LAT CMA_LON CMA_CAT CMA_WIND CMA_PRES HKO_LAT HKO_LON HKO_CAT HKO_WIND HKO_PRES NEWDELHI_LAT NEWDELHI_LON NEWDELHI_GRADE NEWDELHI_WIND NEWDELHI_PRES NEWDELHI_CI NEWDELHI_DP NEWDELHI_POCI REUNION_LAT REUNION_LON REUNION_TYPE REUNION_WIND REUNION_PRES REUNION_TNUM REUNION_CI REUNION_RMW REUNION_R34_NE REUNION_R34_SE REUNION_R34_SW REUNION_R34_NW REUNION_R50_NE REUNION_R50_SE REUNION_R50_SW REUNION_R50_NW REUNION_R64_NE REUNION_R64_SE REUNION_R64_SW REUNION_R64_NW BOM_LAT BOM_LON BOM_TYPE BOM_WIND BOM_PRES BOM_TNUM BOM_CI BOM_RMW BOM_R34_NE BOM_R34_SE BOM_R34_SW BOM_R34_NW BOM_R50_NE BOM_R50_SE BOM_R50_SW BOM_R50_NW BOM_R64_NE BOM_R64_SE BOM_R64_SW BOM_R64_NW BOM_ROCI BOM_POCI BOM_EYE BOM_POS_METHOD BOM_PRES_METHOD NADI_LAT NADI_LON NADI_CAT NADI_WIND NADI_PRES WELLINGTON_LAT WELLINGTON_LON WELLINGTON_WIND WELLINGTON_PRES DS824_LAT DS824_LON DS824_STAGE DS824_WIND DS824_PRES TD9636_LAT TD9636_LON TD9636_STAGE TD9636_WIND TD9636_PRES TD9635_LAT TD9635_LON TD9635_WIND TD9635_PRES TD9635_ROCI NEUMANN_LAT NEUMANN_LON NEUMANN_CLASS NEUMANN_WIND NEUMANN_PRES MLC_LAT MLC_LON MLC_CLASS MLC_WIND MLC_PRES USA_GUST BOM_GUST BOM_GUST_PER REUNION_GUST REUNION_GUST_PER USA_SEAHGT USA_SEARAD_NE USA_SEARAD_SE USA_SEARAD_SW USA_SEARAD_NW STORM_SPEED STORM_DIR
1922164N15278 1922 32 NA CS NOT_NAMED 1922-06-12 12:00:00 TS 15.5000 -82.3000 25 hurdat_atl main 102 85 O_____________ hurdat_atl AL011922 15.5000 -82.3000 TD 25 -1 13 307
1922164N15278 1922 32 NA CS NOT_NAMED 1922-06-12 15:00:00 TS 15.8978 -82.8496 main 92 85 P_____________ AL011922 15.8978 -82.8496 TD 25 -1 13 307
1922164N15278 1922 32 NA CS NOT_NAMED 1922-06-12 18:00:00 TS 16.3000 -83.4000 25 hurdat_atl main 101 94 O_____________ hurdat_atl AL011922 16.3000 -83.4000 TD 25 -1 13 307
1922164N15278 1922 32 NA CS NOT_NAMED 1922-06-12 21:00:00 TS 16.7074 -83.9502 main 105 105 P_____________ AL011922 16.7074 -83.9502 TD 25 -1 13 307
1922164N15278 1922 32 NA CS NOT_NAMED 1922-06-13 00:00:00 TS 17.1000 -84.5000 25 hurdat_atl main 135 134 O_____________ hurdat_atl AL011922 17.1000 -84.5000 TD 25 -1 13 306
1922164N15278 1922 32 NA CS NOT_NAMED 1922-06-13 03:00:00 TS 17.4725 -85.0651 main 179 179 P_____________ AL011922 17.4725 -85.0651 TD 25 -1 13 304
1922164N15278 1922 32 NA CS NOT_NAMED 1922-06-13 06:00:00 TS 17.8000 -85.6000 25 hurdat_atl main 212 177 O_____________ hurdat_atl AL011922 17.8000 -85.6000 TD 25 -1 12 302
1922164N15278 1922 32 NA CS NOT_NAMED 1922-06-13 09:00:00 TS 18.0875 -86.0951 main 177 130 P_____________ AL011922 18.0875 -86.0951 TD 27 -1 10 300
1922164N15278 1922 32 NA CS NOT_NAMED 1922-06-13 12:00:00 TS 18.3000 -86.5000 30 hurdat_atl main 130 97 O_____________ hurdat_atl AL011922 18.3000 -86.5000 TD 30 -1 7 297
1922164N15278 1922 32 NA CS NOT_NAMED 1922-06-13 15:00:00 TS 18.4223 -86.7727 main 97 74 P_____________ AL011922 18.4223 -86.7727 TD 30 -1 5 293
1922164N15278 1922 32 NA CS NOT_NAMED 1922-06-13 18:00:00 TS 18.5000 -87.0000 30 hurdat_atl main 74 42 O_____________ hurdat_atl AL011922 18.5000 -87.0000 TD 30 -1 5 290
1922164N15278 1922 32 NA CS NOT_NAMED 1922-06-13 21:00:00 TS 18.5924 -87.2701 main 42 10 P_____________ AL011922 18.5924 -87.2701 TD 30 -1 6 289
1922164N15278 1922 32 NA CS NOT_NAMED 1922-06-14 00:00:00 TS 18.7000 -87.6000 30 hurdat_atl main 10 0 O_____________ hurdat_atl AL011922 18.7000 -87.6000 TD 30 -1 7 288
1922164N15278 1922 32 NA CS NOT_NAMED 1922-06-14 03:00:00 TS 18.8275 -88.0201 main 0 0 P_____________ AL011922 18.8275 -88.0201 TD 30 -1 9 289
1922164N15278 1922 32 NA NA NOT_NAMED 1922-06-14 06:00:00 TS 19.0000 -88.5000 30 hurdat_atl main 0 0 O_____________ hurdat_atl AL011922 19.0000 -88.5000 TD 30 -1 10 294
1922164N15278 1922 32 NA NA NOT_NAMED 1922-06-14 09:00:00 TS 19.2272 -88.9702 main 0 0 P_____________ AL011922 19.2272 -88.9702 TD 27 -1 11 298
1922164N15278 1922 32 NA NA NOT_NAMED 1922-06-14 12:00:00 TS 19.5000 -89.5000 25 hurdat_atl main 0 0 O_____________ hurdat_atl AL011922 19.5000 -89.5000 TD 25 -1 12 298
1922164N15278 1922 32 NA NA NOT_NAMED 1922-06-14 15:00:00 TS 19.7923 -90.1127 main 0 0 P_____________ AL011922 19.7923 -90.1127 TD 25 -1 14 296
1922164N15278 1922 32 NA GM NOT_NAMED 1922-06-14 18:00:00 TS 20.1000 -90.8000 25 hurdat_atl main 31 31 O_____________ hurdat_atl AL011922 20.1000 -90.8000 TD 25 -1 15 295
1922164N15278 1922 32 NA GM NOT_NAMED 1922-06-14 21:00:00 TS 20.3997 -91.5203 main 104 104 P_____________ AL011922 20.3997 -91.5203 TD 27 -1 15 293
1922164N15278 1922 32 NA GM NOT_NAMED 1922-06-15 00:00:00 TS 20.7000 -92.3000 30 hurdat_atl main 188 188 O_____________ hurdat_atl AL011922 20.7000 -92.3000 TD 30 -1 16 291
1922164N15278 1922 32 NA GM NOT_NAMED 1922-06-15 03:00:00 TS 20.9925 -93.1503 main 273 273 P_____________ AL011922 20.9925 -93.1503 TD 32 -1 17 291
1922164N15278 1922 32 NA GM NOT_NAMED 1922-06-15 06:00:00 TS 21.3000 -94.0000 35 hurdat_atl main 294 258 O_____________ hurdat_atl AL011922 21.3000 -94.0000 TS 35 0 17 292
1922164N15278 1922 32 NA GM NOT_NAMED 1922-06-15 09:00:00 TS 21.6197 -94.7880 main 251 191 P_____________ AL011922 21.6197 -94.7880 TS 37 0 16 297
1922164N15278 1922 32 NA GM NOT_NAMED 1922-06-15 12:00:00 TS 22.0000 -95.5000 40 hurdat_atl main 191 152 O_____________ hurdat_atl AL011922 22.0000 -95.5000 TS 40 0 15 304
1922164N15278 1922 32 NA GM NOT_NAMED 1922-06-15 15:00:00 TS 22.4772 -96.1377 main 159 112 P_____________ AL011922 22.4772 -96.1377 TS 42 0 15 312
1922164N15278 1922 32 NA GM NOT_NAMED 1922-06-15 18:00:00 TS 23.0000 -96.7000 45 hurdat_atl main 112 61 O_____________ hurdat_atl AL011922 23.0000 -96.7000 TS 45 0 14 316
1922164N15278 1922 32 NA GM NOT_NAMED 1922-06-15 21:00:00 TS 23.4998 -97.2229 main 61 10 P_____________ AL011922 23.4998 -97.2229 TS 45 0 14 317
1922164N15278 1922 32 NA GM NOT_NAMED 1922-06-16 00:00:00 TS 24.0000 -97.7000 45 hurdat_atl main 10 0 O_____________ hurdat_atl AL011922 24.0000 -97.7000 TS 45 0 13 319
1922164N15278 1922 32 NA NA NOT_NAMED 1922-06-16 03:00:00 TS 24.4998 -98.1579 main 0 0 P_____________ AL011922 24.4998 -98.1579 TS 40 0 13 321
1922164N15278 1922 32 NA NA NOT_NAMED 1922-06-16 06:00:00 TS 25.0000 -98.6000 35 hurdat_atl main 0 0 O_____________ hurdat_atl AL011922 25.0000 -98.6000 TS 35 0 13 321
1922164N15278 1922 32 NA NA NOT_NAMED 1922-06-16 09:00:00 TS 25.5000 -99.0652 main 0 0 P_____________ AL011922 25.5000 -99.0652 TS 32 -1 13 321
1922164N15278 1922 32 NA NA NOT_NAMED 1922-06-16 12:00:00 TS 26.0000 -99.5000 30 1006 hurdat_atl main 0 0 O_____________ hurdat_atl AL011922 26.0000 -99.5000 TD 30 1006 -1 12 324
1922164N15278 1922 32 NA NA NOT_NAMED 1922-06-16 15:00:00 TS 26.5001 -99.8696 main 0 0 P_____________ AL011922 26.5001 -99.8696 TD 27 -1 12 328
1922164N15278 1922 32 NA NA NOT_NAMED 1922-06-16 18:00:00 TS 27.0000 -100.200 25 hurdat_atl main 0 O_____________ hurdat_atl AL011922 27.0000 -100.200 TD 25 -1 12 330

IBTrACS Databaseについて

本データベースは、米国NOAAが公開する1842年以降の世界の熱帯低気圧のベストトラックデータアーカイブInternational Best Track Archive for Climate Stewardship (IBTrACS)を、ウェブで閲覧しやすい形式に変換したものです。

最終更新日:2021-10-21